Sumner, Maine
Current Conditions -  °F | °C
As of 6:55 PM on Saturday 20 Dec 2014 (Local Time) from KLEW Reporting Station
Clear Clear  
Wind Chill: 15°   Ceiling: Unl
Heat Index: 21°   Visibility: 10mi
Dew Point: 16°   Wind: 5mph
Humidity: 80%   Direction: 40°NE
Pressure: 30.34"   Gusts: NA
Location:  44.39°N, 70.43°W
Report Text: KLEW 202355Z AUTO 04004KT 10SM CLR M06/M09 A3034 RMK AO1 11010 21060 410101080 52014
Loading
Personal Weather Stations






























Interactive Weather Map New forecast layout! Learn more

10-Day Weather Forecast

Advertisements
Track Severe Weather on mobile